Time;durP1;ratioP1;P1;durP2;ratioP2;P2;SDS_P1;SDS_P2;PMS_P1;PMS_P2;Temp;Humidity;BMP_temperature;BMP_pressure;BME280_temperature;BME280_humidity;BME280_pressure;Samples;Min_cycle;Max_cycle;Signal;HPM_P1;HPM_P2
2022/11/16 00:05:38;;;;;;;78.70;28.00;;;;;;;8.38;100.00;100014.46;661476;1310;139077;-77
2022/11/16 00:20:44;;;;;;;51.10;23.60;;;;;;;8.35;100.00;100007.09;662818;1303;138735;-77
2022/11/16 00:35:47;;;;;;;51.90;19.90;;;;;;;8.14;100.00;99999.41;661110;1310;138792;-78
2022/11/16 00:50:51;;;;;;;48.10;21.00;;;;;;;8.21;100.00;100008.46;661288;1310;139471;-78
2022/11/16 01:06:05;;;;;;;49.30;17.10;;;;;;;8.09;100.00;100005.15;661552;1309;138750;-77
2022/11/16 01:21:09;;;;;;;49.80;23.30;;;;;;;8.16;100.00;100002.87;661830;1310;138542;-77
2022/11/16 01:36:14;;;;;;;37.30;17.00;;;;;;;8.15;100.00;99999.52;661799;1309;138806;-77
2022/11/16 01:51:18;;;;;;;32.00;14.20;;;;;;;8.17;100.00;99991.13;661394;1310;138927;-77
2022/11/16 02:06:42;;;;;;;39.10;15.70;;;;;;;8.27;100.00;99981.24;661505;1310;138541;-77
2022/11/16 02:22:14;;;;;;;48.10;22.70;;;;;;;8.35;100.00;99960.38;661793;1310;138538;-77
2022/11/16 02:37:26;;;;;;;35.50;16.00;;;;;;;8.43;100.00;99957.95;661814;1306;138565;-77
2022/11/16 02:52:29;;;;;;;40.40;17.30;;;;;;;8.45;100.00;99953.77;661735;1303;138980;-77
2022/11/16 03:07:43;;;;;;;39.80;16.50;;;;;;;8.40;100.00;99942.71;661617;1310;138605;-77
2022/11/16 03:22:59;;;;;;;43.50;18.60;;;;;;;8.27;100.00;99933.67;661901;1310;138980;-77
2022/11/16 03:38:05;;;;;;;32.80;14.20;;;;;;;8.24;100.00;99927.55;661592;1309;138734;-77
2022/11/16 03:53:08;;;;;;;38.40;19.10;;;;;;;8.21;100.00;99917.45;661693;1309;138779;-77
2022/11/16 04:38:59;;;;;;;18.30;9.10;;;;;;;8.08;100.00;99901.31;661422;1310;138727;-77
2022/11/16 04:54:03;;;;;;;10.10;5.00;;;;;;;8.04;100.00;99901.66;661258;1310;138335;-76
2022/11/16 05:09:07;;;;;;;6.60;4.80;;;;;;;7.67;100.00;99903.98;661687;1310;138352;-77
2022/11/16 05:39:33;;;;;;;2.90;2.10;;;;;;;7.51;100.00;99919.20;661199;1310;138468;-77
2022/11/16 05:54:36;;;;;;;3.50;2.40;;;;;;;7.41;100.00;99923.66;661325;1310;138291;-77
2022/11/16 06:09:40;;;;;;;15.80;9.90;;;;;;;7.22;100.00;99938.58;661276;1310;138159;-77
2022/11/16 06:24:49;;;;;;;7.60;6.40;;;;;;;7.03;100.00;99947.55;661692;1309;138272;-77
2022/11/16 06:39:53;;;;;;;11.50;6.50;;;;;;;6.85;100.00;99936.23;661433;1310;138279;-77
2022/11/16 06:54:58;;;;;;;12.60;8.00;;;;;;;6.78;100.00;99928.73;661665;1295;138411;-77
2022/11/16 07:10:06;;;;;;;15.00;7.70;;;;;;;6.78;100.00;99932.06;661194;1309;138459;-78
2022/11/16 07:25:11;;;;;;;17.80;8.90;;;;;;;6.85;100.00;99933.81;661455;1309;138411;-78
2022/11/16 07:40:15;;;;;;;5.00;3.60;;;;;;;6.82;100.00;99927.77;661323;1310;139178;-78
2022/11/16 07:55:20;;;;;;;8.40;3.90;;;;;;;6.98;100.00;99925.14;661755;1309;138150;-79
2022/11/16 08:10:24;;;;;;;12.00;6.00;;;;;;;7.17;100.00;99924.19;661278;1310;138290;-78
2022/11/16 08:25:29;;;;;;;7.10;4.00;;;;;;;7.31;100.00;99916.11;661278;1310;138252;-78
2022/11/16 08:40:34;;;;;;;11.80;7.10;;;;;;;7.46;100.00;99925.27;661795;1309;138178;-79
2022/11/16 08:55:38;;;;;;;24.00;12.70;;;;;;;7.38;100.00;99930.00;661830;1310;138180;-76
2022/11/16 09:10:43;;;;;;;14.40;7.90;;;;;;;6.90;100.00;99944.35;663299;1303;138647;-78
2022/11/16 09:25:47;;;;;;;4.50;3.80;;;;;;;6.87;100.00;99946.15;661487;1309;138329;-79
2022/11/16 09:40:51;;;;;;;11.90;7.30;;;;;;;6.84;99.87;99942.18;661429;1310;138271;-78
2022/11/16 09:56:03;;;;;;;3.80;2.40;;;;;;;7.02;99.37;99930.89;661289;1310;138406;-78
2022/11/16 10:11:22;;;;;;;28.00;14.80;;;;;;;7.25;97.87;99924.89;661538;1310;138082;-79
2022/11/16 10:26:35;;;;;;;14.50;10.20;;;;;;;7.10;95.92;99927.66;661671;1310;138310;-78
2022/11/16 10:41:41;;;;;;;20.00;8.30;;;;;;;6.83;95.40;99908.02;661857;1310;138323;-78
2022/11/16 10:56:50;;;;;;;21.80;10.50;;;;;;;7.04;94.59;99907.80;661529;1304;138252;-79
2022/11/16 11:27:32;;;;;;;20.20;10.40;;;;;;;6.55;91.90;99902.73;661718;1308;138688;-78
2022/11/16 11:42:41;;;;;;;12.70;6.30;;;;;;;6.58;90.98;99908.58;661804;1288;138815;-80
2022/11/16 11:57:48;;;;;;;13.70;6.40;;;;;;;6.43;89.79;99904.86;661551;1307;170204;-78
2022/11/16 12:13:13;;;;;;;31.10;12.20;;;;;;;6.31;88.31;99903.48;661397;1310;138121;-78
2022/11/16 12:28:38;;;;;;;5.40;3.20;;;;;;;6.13;87.69;99905.57;661813;1310;138616;-78
2022/11/16 12:43:58;;;;;;;7.80;4.30;;;;;;;6.02;88.43;99916.49;661949;1296;138268;-78
2022/11/16 12:59:25;;;;;;;8.20;5.20;;;;;;;5.91;88.53;99918.25;661814;1310;138211;-78
2022/11/16 13:14:38;;;;;;;14.20;9.20;;;;;;;5.87;87.91;99929.87;661389;1310;137995;-79
2022/11/16 13:29:48;;;;;;;78.00;30.60;;;;;;;5.53;86.89;99943.40;661470;1310;138126;-76
2022/11/16 13:45:03;;;;;;;12.70;7.20;;;;;;;5.22;85.94;99944.94;661742;1308;138415;-76
2022/11/16 14:00:11;;;;;;;16.10;7.90;;;;;;;4.84;85.84;99942.88;661624;1310;138223;-76
2022/11/16 14:15:18;;;;;;;61.00;31.70;;;;;;;4.83;87.06;99929.13;661328;1313;138368;-76
2022/11/16 14:30:27;;;;;;;24.60;9.30;;;;;;;4.71;87.30;99931.81;661815;1307;138342;-78
2022/11/16 14:45:36;;;;;;;19.60;9.00;;;;;;;4.67;87.60;99922.42;660553;1312;138207;-78
2022/11/16 15:00:40;;;;;;;43.70;16.90;;;;;;;4.68;87.19;99916.45;660203;1306;138342;-78
2022/11/16 15:15:45;;;;;;;24.60;11.50;;;;;;;4.72;86.94;99915.13;660803;1312;138373;-76
2022/11/16 15:30:53;;;;;;;34.40;12.30;;;;;;;4.68;87.10;99904.72;661066;1312;138385;-79
2022/11/16 15:45:59;;;;;;;26.30;12.20;;;;;;;4.68;86.41;99909.17;660649;1312;138435;-79
2022/11/16 16:01:04;;;;;;;43.70;19.10;;;;;;;4.74;85.39;99909.30;660785;1308;138243;-78
2022/11/16 16:16:22;;;;;;;29.30;16.40;;;;;;;4.76;85.01;99899.22;660828;1312;139990;-79
2022/11/16 16:31:27;;;;;;;74.80;33.50;;;;;;;4.47;84.59;99895.39;661031;1310;138451;-79
2022/11/16 16:46:33;;;;;;;108.80;39.60;;;;;;;4.38;84.96;99898.08;661013;1310;138427;-79
2022/11/16 17:01:42;;;;;;;98.80;44.50;;;;;;;4.55;85.33;99903.52;660915;1312;138471;-77
2022/11/16 17:16:46;;;;;;;76.70;25.00;;;;;;;4.65;85.32;99898.31;662826;1303;138436;-77
2022/11/16 17:31:50;;;;;;;32.40;14.80;;;;;;;4.66;85.78;99899.08;661003;1307;139202;-77
2022/11/16 17:46:54;;;;;;;61.20;25.40;;;;;;;4.64;85.61;99902.89;661520;1310;138491;-76
2022/11/16 18:02:01;;;;;;;42.70;17.70;;;;;;;4.58;85.94;99910.07;661145;1310;138410;-76
2022/11/16 18:17:06;;;;;;;35.00;13.90;;;;;;;4.46;86.30;99919.29;661253;1310;138840;-77
2022/11/16 18:32:12;;;;;;;29.30;13.90;;;;;;;4.47;86.47;99933.10;661323;1311;138338;-76
2022/11/16 18:47:16;;;;;;;22.60;11.60;;;;;;;4.58;86.90;99944.83;661408;1310;138451;-76
2022/11/16 19:02:34;;;;;;;22.30;11.30;;;;;;;4.78;87.29;99938.95;661117;1310;138515;-76
2022/11/16 19:17:41;;;;;;;63.90;19.30;;;;;;;4.87;86.66;99932.63;661158;1308;138463;-78
2022/11/16 19:33:08;;;;;;;34.20;15.20;;;;;;;4.93;86.25;99937.27;661182;1310;138257;-77
2022/11/16 19:48:12;;;;;;;27.30;10.80;;;;;;;4.95;86.29;99933.13;661491;1310;139282;-77
2022/11/16 20:03:17;;;;;;;29.10;13.80;;;;;;;4.85;86.16;99929.30;661469;1305;139154;-76
2022/11/16 20:18:22;;;;;;;25.20;11.30;;;;;;;4.90;85.82;99938.71;661337;1310;138458;-78
2022/11/16 20:33:28;;;;;;;31.90;12.00;;;;;;;4.96;84.71;99943.27;661021;1309;138333;-79
2022/11/16 20:48:32;;;;;;;51.60;21.60;;;;;;;5.01;84.65;99941.69;660956;1310;138384;-78
2022/11/16 21:03:43;;;;;;;66.60;26.70;;;;;;;5.01;84.25;99943.25;660967;1311;138412;-77
2022/11/16 21:18:48;;;;;;;24.60;10.20;;;;;;;5.04;83.74;99937.67;661542;1306;138488;-76
2022/11/16 21:33:52;;;;;;;37.30;13.90;;;;;;;5.01;83.61;99936.90;661478;1310;138496;-77
2022/11/16 21:48:56;;;;;;;28.70;11.50;;;;;;;4.90;82.31;99943.20;661623;1310;138589;-76
2022/11/16 22:19:23;;;;;;;8.80;4.10;;;;;;;4.80;81.58;99955.46;661484;1310;138574;-77
2022/11/16 22:34:27;;;;;;;15.60;7.90;;;;;;;4.65;81.79;99953.91;661469;1305;138449;-77
2022/11/16 22:49:31;;;;;;;16.50;7.70;;;;;;;4.54;81.39;99951.37;661479;1309;138147;-77
2022/11/16 23:04:34;;;;;;;33.40;12.60;;;;;;;4.58;82.02;99952.30;661627;1309;138645;-77
2022/11/16 23:34:59;;;;;;;10.00;5.60;;;;;;;4.74;81.38;99942.52;661250;1311;138187;-77
2022/11/16 23:50:03;;;;;;;8.40;5.00;;;;;;;4.63;80.82;99937.46;660628;1310;155551;-78
